createdAt,value
2019-06-20T08:56:00.922Z,2
2019-06-20T08:57:00.805Z,0.67
2019-06-20T08:58:01.419Z,2
2019-06-20T08:59:00.550Z,0
2019-06-20T09:00:00.654Z,3.33
2019-06-20T09:01:03.930Z,0
2019-06-20T09:02:00.664Z,1.33
2019-06-20T09:03:00.373Z,3.33
2019-06-20T09:04:00.170Z,4.67
2019-06-20T09:05:00.362Z,1.33
2019-06-20T09:06:00.113Z,4.67
2019-06-20T09:07:00.574Z,3.33
2019-06-20T09:08:00.701Z,2
2019-06-20T09:09:00.181Z,4.67
2019-06-20T09:10:00.137Z,3.33
2019-06-20T09:11:00.107Z,1.33
2019-06-20T09:12:00.369Z,2.67
2019-06-20T09:13:01.293Z,1.33
2019-06-20T09:14:01.444Z,4
2019-06-20T09:15:01.123Z,0.67
2019-06-20T09:16:00.895Z,4.67
2019-06-20T09:17:00.731Z,3.33
2019-06-20T09:18:00.706Z,1.33
2019-06-20T09:19:00.450Z,2.67
2019-06-20T09:20:00.270Z,2.67
2019-06-20T09:21:00.264Z,4
2019-06-20T09:22:00.559Z,1.33
2019-06-20T09:23:01.031Z,0
2019-06-20T09:24:00.105Z,4
2019-06-20T09:25:00.808Z,2.67
2019-06-20T09:26:00.132Z,2
2019-06-20T09:27:00.103Z,1.33
2019-06-20T09:28:00.398Z,4.67
2019-06-20T09:29:00.118Z,3.33
2019-06-20T09:30:00.466Z,2
2019-06-20T09:31:00.093Z,0
2019-06-20T09:32:00.106Z,1.33
2019-06-20T09:33:00.091Z,2
2019-06-20T09:34:03.385Z,4
2019-06-20T09:35:00.413Z,4.67
2019-06-20T09:36:00.113Z,4
2019-06-20T09:37:00.147Z,3.33
2019-06-20T09:38:00.104Z,4
2019-06-20T09:39:00.085Z,2
2019-06-20T09:40:00.209Z,3.33
2019-06-20T09:41:00.156Z,0.67
2019-06-20T09:42:00.107Z,0
2019-06-20T09:43:00.100Z,2.67
2019-06-20T09:44:00.093Z,1.33
2019-06-20T09:45:00.126Z,1.33
2019-06-20T09:46:00.092Z,5.34
2019-06-20T09:47:00.198Z,4
2019-06-20T09:48:00.090Z,4.67
2019-06-20T09:49:00.106Z,1.33
2019-06-20T09:50:00.138Z,4.67
2019-06-20T09:51:00.107Z,2
2019-06-20T09:52:00.127Z,4
2019-06-20T09:53:00.104Z,5.34
2019-06-20T09:54:00.121Z,0
2019-06-20T09:55:00.122Z,5.34
2019-06-20T09:56:00.127Z,2
2019-06-20T09:57:00.090Z,1.33
2019-06-20T09:58:00.086Z,4.67
2019-06-20T09:59:00.101Z,2.67
2019-06-20T10:00:09.328Z,0
2019-06-20T10:01:00.090Z,2.67
2019-06-20T10:02:00.108Z,2
2019-06-20T10:03:00.089Z,0.67
2019-06-20T10:04:00.091Z,2
2019-06-20T10:05:00.103Z,0
2019-06-20T10:06:00.182Z,3.33
2019-06-20T10:07:00.115Z,4
2019-06-20T10:08:00.095Z,3.33
2019-06-20T10:09:00.113Z,2
2019-06-20T10:10:00.233Z,4.67
2019-06-20T10:11:00.135Z,0.67
2019-06-20T10:12:00.089Z,1.33
2019-06-20T10:13:00.091Z,4.67
2019-06-20T10:14:00.108Z,1.33
2019-06-20T10:15:00.110Z,2
2019-06-20T10:16:00.092Z,0.67
2019-06-20T10:17:01.191Z,1.33
2019-06-20T10:18:00.092Z,4
2019-06-20T10:19:00.090Z,0.67
2019-06-20T10:20:00.226Z,4.67
2019-06-20T10:21:00.085Z,4.67
2019-06-20T10:22:00.108Z,0.67
2019-06-20T10:23:00.098Z,2.67
2019-06-20T10:24:00.088Z,4
2019-06-20T10:25:00.145Z,2
2019-06-20T10:26:00.148Z,0
2019-06-20T10:27:00.097Z,0.67
2019-06-20T10:28:00.088Z,2.67
2019-06-20T10:29:00.108Z,1.33
2019-06-20T10:30:13.349Z,4
2019-06-20T10:31:00.125Z,1.33
2019-06-20T10:32:00.079Z,2.67
2019-06-20T10:33:00.101Z,0
2019-06-20T10:34:00.103Z,3.33
2019-06-20T10:35:00.200Z,0.67
2019-06-20T10:36:00.121Z,4
2019-06-20T10:37:00.106Z,2
2019-06-20T10:38:00.108Z,0
2019-06-20T10:39:00.117Z,0.67
2019-06-20T10:40:00.129Z,4
2019-06-20T10:41:00.211Z,0
2019-06-20T10:42:00.098Z,2
2019-06-20T10:43:00.100Z,2.67
2019-06-20T10:44:00.128Z,2
2019-06-20T10:45:00.147Z,4.67
2019-06-20T10:46:00.084Z,1.33
2019-06-20T10:47:00.127Z,3.33
2019-06-20T10:48:00.102Z,1.33
2019-06-20T10:49:00.358Z,1.33
2019-06-20T10:50:00.159Z,1.33
2019-06-20T10:51:00.103Z,3.33
2019-06-20T10:52:00.095Z,5.34
2019-06-20T10:53:00.109Z,0
2019-06-20T10:54:00.109Z,1.33
2019-06-20T10:55:00.127Z,2
2019-06-20T10:56:00.122Z,0
2019-06-20T10:57:00.191Z,0
2019-06-20T10:58:00.134Z,1.33
2019-06-20T10:59:00.135Z,1.33
2019-06-20T11:00:00.132Z,1.33
2019-06-20T11:01:00.083Z,4.67
2019-06-20T11:02:00.136Z,1.33
2019-06-20T11:03:00.092Z,0.67
2019-06-20T11:04:00.083Z,0
2019-06-20T11:05:00.131Z,3.33
2019-06-20T11:06:00.104Z,4
2019-06-20T11:07:00.102Z,1.33
2019-06-20T11:08:00.094Z,3.33
2019-06-20T11:09:00.103Z,0
2019-06-20T11:10:00.138Z,4
2019-06-20T11:11:00.130Z,3.33
2019-06-20T11:12:00.112Z,4
2019-06-20T11:13:00.600Z,0.67
2019-06-20T11:14:00.093Z,2
2019-06-20T11:15:00.133Z,6
2019-06-20T11:16:00.090Z,3.33
2019-06-20T11:17:00.125Z,2
2019-06-20T11:18:00.108Z,2
2019-06-20T11:19:00.099Z,0.67
2019-06-20T11:20:00.185Z,4.67
2019-06-20T11:21:00.096Z,5.34
2019-06-20T11:22:00.096Z,4.67
2019-06-20T11:23:00.087Z,2.67
2019-06-20T11:24:00.101Z,4.67
2019-06-20T11:25:00.131Z,3.33
2019-06-20T11:26:00.168Z,0.67
2019-06-20T11:27:00.089Z,2
2019-06-20T11:28:00.087Z,1.33
2019-06-20T11:29:00.113Z,0.67
2019-06-20T11:30:00.197Z,1.33
2019-06-20T11:31:00.800Z,0
2019-06-20T11:32:00.152Z,2
2019-06-20T11:33:00.118Z,2
2019-06-20T11:34:00.086Z,0
2019-06-20T11:35:00.147Z,2
2019-06-20T11:36:00.103Z,1.33
2019-06-20T11:37:00.090Z,1.33
2019-06-20T11:38:00.087Z,1.33
2019-06-20T11:39:00.083Z,0.67
2019-06-20T11:40:00.158Z,2
2019-06-20T11:41:00.133Z,4
2019-06-20T11:42:00.104Z,3.33
2019-06-20T11:43:00.108Z,5.34
2019-06-20T11:44:00.102Z,0.67
2019-06-20T11:45:00.128Z,0.67
2019-06-20T11:46:00.099Z,5.34
2019-06-20T11:47:00.098Z,4.67
2019-06-20T11:48:00.110Z,4
2019-06-20T11:49:00.092Z,2.67
2019-06-20T11:50:00.153Z,4.67
2019-06-20T11:51:00.088Z,1.33
2019-06-20T11:52:00.097Z,1.33
2019-06-20T11:53:00.142Z,0
2019-06-20T11:54:00.099Z,2
2019-06-20T11:55:00.133Z,0
2019-06-20T11:56:00.178Z,3.33
2019-06-20T11:57:00.085Z,0
2019-06-20T11:58:00.086Z,2
2019-06-20T11:59:00.090Z,0.67
2019-06-20T12:00:00.186Z,4.67
2019-06-20T12:01:03.744Z,4.67
2019-06-20T12:02:00.099Z,4
2019-06-20T12:03:00.091Z,5.34
2019-06-20T12:04:00.086Z,2.67
2019-06-20T12:05:00.122Z,5.34
2019-06-20T12:06:00.107Z,4.67
2019-06-20T12:07:00.104Z,5.34
2019-06-20T12:08:00.100Z,4
2019-06-20T12:09:00.096Z,4.67
2019-06-20T12:10:00.120Z,4.67
2019-06-20T12:11:00.160Z,5.34
2019-06-20T12:12:00.097Z,4.67
2019-06-20T12:13:00.097Z,4
2019-06-20T12:14:00.102Z,4.67
2019-06-20T12:15:00.117Z,4
2019-06-20T12:16:00.099Z,3.33
2019-06-20T12:17:00.092Z,4.67
2019-06-20T12:18:00.099Z,4
2019-06-20T12:19:00.126Z,0
2019-06-20T12:20:00.142Z,2.67
2019-06-20T12:21:00.113Z,5.34
2019-06-20T12:22:00.094Z,2
2019-06-20T12:23:00.101Z,2.67
2019-06-20T12:24:00.094Z,2
2019-06-20T12:25:00.251Z,4.67
2019-06-20T12:26:00.121Z,2
2019-06-20T12:27:00.090Z,0.67
2019-06-20T12:28:00.088Z,0.67
2019-06-20T12:29:00.099Z,0
2019-06-20T12:30:00.138Z,1.33
2019-06-20T12:31:00.083Z,0
2019-06-20T12:32:00.099Z,0
2019-06-20T12:33:00.104Z,0
2019-06-20T12:34:00.141Z,2.67
2019-06-20T12:35:00.265Z,0.67
2019-06-20T12:36:00.089Z,0
2019-06-20T12:37:00.130Z,0
2019-06-20T12:38:00.087Z,0
2019-06-20T12:39:00.102Z,0
2019-06-20T12:40:00.345Z,0
2019-06-20T12:41:00.114Z,0
2019-06-20T12:42:00.096Z,0
2019-06-20T12:43:00.105Z,0
2019-06-20T12:44:00.133Z,0
2019-06-20T12:45:00.112Z,2
2019-06-20T12:46:00.126Z,2.67
2019-06-20T12:47:00.094Z,4
2019-06-20T12:48:00.115Z,4
2019-06-20T12:49:00.151Z,0.67
2019-06-20T12:50:00.131Z,0
2019-06-20T12:51:00.101Z,2.67
2019-06-20T12:52:00.118Z,1.33
2019-06-20T12:53:00.091Z,0
2019-06-20T12:54:00.095Z,2
2019-06-20T12:55:00.114Z,2
2019-06-20T12:56:00.167Z,1.33
2019-06-20T12:57:00.116Z,0.67
2019-06-20T12:58:00.116Z,2.67
2019-06-20T12:59:00.105Z,0.67
2019-06-20T13:00:00.169Z,0.67
2019-06-20T13:01:00.098Z,2
2019-06-20T13:02:00.102Z,3.33
2019-06-20T13:03:00.109Z,3.33
2019-06-20T13:04:00.095Z,4
2019-06-20T13:05:00.142Z,4
2019-06-20T13:06:00.110Z,2.67
2019-06-20T13:07:00.089Z,3.33
2019-06-20T13:08:00.098Z,4
2019-06-20T13:09:00.088Z,0.67
2019-06-20T13:10:00.120Z,2
2019-06-20T13:11:00.119Z,3.33
2019-06-20T13:12:00.102Z,0
2019-06-20T13:13:00.129Z,2
2019-06-20T13:14:00.099Z,2.67
2019-06-20T13:15:00.147Z,4
2019-06-20T13:16:00.093Z,2
2019-06-20T13:17:00.096Z,1.33
2019-06-20T13:18:00.127Z,0
2019-06-20T13:19:00.089Z,1.33
2019-06-20T13:20:00.150Z,4
2019-06-20T13:21:00.113Z,4.67
2019-06-20T13:22:00.094Z,0
2019-06-20T13:23:00.090Z,5.34
2019-06-20T13:24:00.096Z,4.67
2019-06-20T13:25:00.107Z,1.33
2019-06-20T13:26:00.170Z,5.34
2019-06-20T13:27:00.098Z,4
2019-06-20T13:28:00.092Z,4.67
2019-06-20T13:29:03.937Z,2.67
2019-06-20T13:30:00.165Z,1.33
2019-06-20T13:31:00.093Z,4.67
2019-06-20T13:32:04.088Z,3.33
2019-06-20T13:33:00.080Z,0.67
2019-06-20T13:34:00.143Z,4.67
2019-06-20T13:35:00.134Z,2
2019-06-20T13:36:00.099Z,4
2019-06-20T13:37:00.115Z,2
2019-06-20T13:38:00.104Z,3.33
2019-06-20T13:39:00.087Z,3.33
2019-06-20T13:40:00.133Z,2
2019-06-20T13:41:00.134Z,5.34
2019-06-20T13:42:00.099Z,2.67
2019-06-20T13:43:00.099Z,4
2019-06-20T13:44:00.092Z,4.67
2019-06-20T13:45:00.115Z,4
2019-06-20T13:46:00.089Z,4
2019-06-20T13:47:00.086Z,4
2019-06-20T13:48:00.108Z,4
2019-06-20T13:49:00.107Z,5.34
2019-06-20T13:50:00.118Z,4.67
2019-06-20T13:51:00.097Z,4.67
2019-06-20T13:52:00.100Z,3.33
2019-06-20T13:53:00.082Z,3.33
2019-06-20T13:54:00.093Z,4
2019-06-20T13:55:00.102Z,4
2019-06-20T13:56:00.167Z,3.33
2019-06-20T13:57:00.105Z,2
2019-06-20T13:58:00.082Z,3.33
2019-06-20T13:59:00.089Z,4
2019-06-20T14:00:00.226Z,4.67
2019-06-20T14:01:00.152Z,2.67
2019-06-20T14:02:06.395Z,4
2019-06-20T14:03:00.142Z,2.67
2019-06-20T14:04:00.086Z,3.33
2019-06-20T14:05:00.165Z,3.33
2019-06-20T14:06:00.098Z,4.67
2019-06-20T14:07:00.089Z,4.67
2019-06-20T14:08:00.087Z,5.34
2019-06-20T14:09:00.095Z,5.34
2019-06-20T14:10:00.174Z,5.34
2019-06-20T14:11:00.099Z,4
2019-06-20T14:12:00.097Z,4.67
2019-06-20T14:13:00.073Z,4.67
2019-06-20T14:14:00.085Z,4.67
2019-06-20T14:15:00.131Z,4
2019-06-20T14:16:00.069Z,5.34
2019-06-20T14:17:00.075Z,5.34
2019-06-20T14:18:00.083Z,4.67
2019-06-20T14:19:01.602Z,3.33
2019-06-20T14:20:00.127Z,4.67
2019-06-20T14:21:00.091Z,4.67
2019-06-20T14:22:00.096Z,4.67
2019-06-20T14:23:00.106Z,5.34
2019-06-20T14:24:00.087Z,4
2019-06-20T14:25:00.173Z,2
2019-06-20T14:26:00.098Z,3.33
2019-06-20T14:27:00.121Z,4
2019-06-20T14:28:00.080Z,4.67
2019-06-20T14:29:00.073Z,4.67
2019-06-20T14:30:00.128Z,4
2019-06-20T14:31:00.072Z,3.33
2019-06-20T14:32:00.078Z,4.67
2019-06-20T14:33:00.090Z,4
2019-06-20T14:34:00.094Z,4
2019-06-20T14:35:00.133Z,4.67
2019-06-20T14:36:00.076Z,5.34
2019-06-20T14:37:00.094Z,3.33
2019-06-20T14:38:00.067Z,4.67
2019-06-20T14:39:00.075Z,4.67
2019-06-20T14:40:00.126Z,4
2019-06-20T14:41:00.111Z,3.33
2019-06-20T14:42:00.072Z,2
2019-06-20T14:43:00.075Z,5.34
2019-06-20T14:44:00.074Z,4
2019-06-20T14:45:00.205Z,5.34
2019-06-20T14:46:00.085Z,4
2019-06-20T14:47:00.101Z,4.67
2019-06-20T14:48:00.125Z,2.67
2019-06-20T14:49:00.102Z,3.33
2019-06-20T14:50:00.135Z,1.33
2019-06-20T14:51:00.075Z,4
2019-06-20T14:52:00.088Z,2
2019-06-20T14:53:00.079Z,4
2019-06-20T14:54:00.096Z,5.34
2019-06-20T14:55:00.140Z,3.33
2019-06-20T14:56:00.104Z,5.34
2019-06-20T14:57:00.072Z,3.33
2019-06-20T14:58:00.078Z,4
2019-06-20T14:59:00.088Z,4
2019-06-20T15:00:00.158Z,1.33
2019-06-20T15:01:00.079Z,5.34
2019-06-20T15:02:00.084Z,4
2019-06-20T15:03:00.077Z,4.67
2019-06-20T15:04:00.087Z,2.67
2019-06-20T15:05:00.152Z,4.67
2019-06-20T15:06:00.099Z,6
2019-06-20T15:07:00.086Z,2
2019-06-20T15:08:00.089Z,1.33
2019-06-20T15:09:04.993Z,3.33
2019-06-20T15:10:00.147Z,4
2019-06-20T15:11:00.107Z,4
2019-06-20T15:12:00.102Z,4.67
2019-06-20T15:13:00.083Z,2.67
2019-06-20T15:14:00.088Z,4
2019-06-20T15:15:00.136Z,0
2019-06-20T15:16:00.103Z,4.67
2019-06-20T15:17:00.082Z,4
2019-06-20T15:18:00.083Z,2.67
2019-06-20T15:19:00.089Z,5.34
2019-06-20T15:20:00.077Z,4.67
2019-06-20T15:21:00.064Z,0
2019-06-20T15:22:00.068Z,1.33
2019-06-20T15:23:00.091Z,2
2019-06-20T15:24:00.084Z,4
2019-06-20T15:25:00.110Z,2
2019-06-20T15:26:00.117Z,5.34
2019-06-20T15:27:00.066Z,4.67
2019-06-20T15:28:00.070Z,3.33
2019-06-20T15:29:00.073Z,2
2019-06-20T15:30:00.107Z,5.34
2019-06-20T15:31:00.101Z,5.34
2019-06-20T15:32:00.060Z,2.67
2019-06-20T15:33:09.233Z,3.33
2019-06-20T15:34:00.099Z,3.33
2019-06-20T15:35:01.820Z,3.33
2019-06-20T15:36:00.100Z,4.67
2019-06-20T15:37:00.069Z,5.34
2019-06-20T15:38:00.097Z,6
2019-06-20T15:39:00.097Z,4.67
2019-06-20T15:40:00.106Z,2
2019-06-20T15:41:00.118Z,4.67
2019-06-20T15:42:00.079Z,4
2019-06-20T15:43:00.070Z,3.33
2019-06-20T15:44:00.060Z,2.67
2019-06-20T15:45:00.106Z,3.33
2019-06-20T15:46:00.075Z,3.33
2019-06-20T15:47:00.076Z,3.33
2019-06-20T15:48:00.093Z,4.67
2019-06-20T15:49:07.715Z,4
2019-06-20T15:50:00.095Z,4.67
2019-06-20T15:51:00.090Z,4
2019-06-20T15:52:00.082Z,4
2019-06-20T15:53:00.073Z,4
2019-06-20T15:54:00.097Z,3.33
2019-06-20T15:55:00.117Z,4.67
2019-06-20T15:56:00.104Z,4
2019-06-20T15:57:00.096Z,5.34
2019-06-20T15:58:00.076Z,4
2019-06-20T15:59:00.071Z,2
2019-06-20T16:00:00.235Z,4.67
2019-06-20T16:01:00.078Z,5.34
2019-06-20T16:02:00.083Z,4.67
2019-06-20T16:03:09.200Z,2.67
2019-06-20T16:04:00.087Z,4
2019-06-20T16:05:00.115Z,2
2019-06-20T16:06:00.087Z,4
2019-06-20T16:07:00.077Z,5.34
2019-06-20T16:08:00.086Z,4.67
2019-06-20T16:09:00.761Z,4
2019-06-20T16:10:00.125Z,4
2019-06-20T16:11:00.138Z,2
2019-06-20T16:12:00.114Z,4
2019-06-20T16:13:00.090Z,4.67
2019-06-20T16:14:00.101Z,4.67
2019-06-20T16:15:00.154Z,2
2019-06-20T16:16:00.089Z,4.67
2019-06-20T16:17:00.098Z,4.67
2019-06-20T16:18:00.172Z,4.67
2019-06-20T16:19:00.095Z,4.67
2019-06-20T16:20:00.143Z,5.34
2019-06-20T16:21:00.081Z,4
2019-06-20T16:22:00.084Z,5.34
2019-06-20T16:23:00.104Z,2
2019-06-20T16:24:00.104Z,4
2019-06-20T16:25:00.151Z,4.67
2019-06-20T16:26:00.123Z,5.34
2019-06-20T16:27:00.089Z,5.34
2019-06-20T16:28:00.087Z,4.67
2019-06-20T16:29:00.110Z,4
2019-06-20T16:30:00.145Z,4
2019-06-20T16:31:08.547Z,4.67
2019-06-20T16:32:00.110Z,3.33
2019-06-20T16:33:00.086Z,1.33
2019-06-20T16:34:00.088Z,5.34
2019-06-20T16:35:00.220Z,4.67
2019-06-20T16:36:00.096Z,4
2019-06-20T16:37:09.494Z,5.34
2019-06-20T16:38:00.092Z,6
2019-06-20T16:39:00.129Z,6
2019-06-20T16:40:00.417Z,4
2019-06-20T16:41:00.117Z,2.67
2019-06-20T16:42:00.114Z,4.67
2019-06-20T16:43:00.110Z,4
2019-06-20T16:44:00.115Z,1.33
2019-06-20T16:45:00.239Z,3.33
2019-06-20T16:46:00.087Z,5.34
2019-06-20T16:47:00.135Z,3.33
2019-06-20T16:48:00.112Z,3.33
2019-06-20T16:49:00.099Z,4
2019-06-20T16:50:00.341Z,5.34
2019-06-20T16:51:00.109Z,2.67
2019-06-20T16:52:00.137Z,5.34
2019-06-20T16:53:01.196Z,4.67
2019-06-20T16:54:00.135Z,5.34
2019-06-20T16:55:00.135Z,4.67
2019-06-20T16:56:00.132Z,4.67
2019-06-20T16:57:00.136Z,3.33
2019-06-20T16:58:00.090Z,1.33
2019-06-20T16:59:00.121Z,4.67
2019-06-20T17:00:00.153Z,4.67
2019-06-20T17:01:00.113Z,4.67
2019-06-20T17:02:00.137Z,2.67
2019-06-20T17:03:00.108Z,2
2019-06-20T17:04:00.097Z,2.67
2019-06-20T17:05:00.154Z,2.67
2019-06-20T17:06:00.089Z,4
2019-06-20T17:07:00.093Z,1.33
2019-06-20T17:08:00.118Z,4
2019-06-20T17:09:00.103Z,4.67
2019-06-20T17:10:00.153Z,2.67
2019-06-20T17:11:00.129Z,5.34
2019-06-20T17:12:00.096Z,5.34
2019-06-20T17:13:00.090Z,4.67
2019-06-20T17:14:00.087Z,6
2019-06-20T17:15:00.124Z,4
2019-06-20T17:16:00.094Z,4
2019-06-20T17:17:00.091Z,4.67
2019-06-20T17:18:00.098Z,4
2019-06-20T17:19:00.110Z,4.67
2019-06-20T17:20:00.147Z,2
2019-06-20T17:21:00.099Z,2
2019-06-20T17:22:00.129Z,3.33
2019-06-20T17:23:00.094Z,5.34
2019-06-20T17:24:00.099Z,4.67
2019-06-20T17:25:00.131Z,5.34
2019-06-20T17:26:01.504Z,4
2019-06-20T17:27:00.231Z,5.34
2019-06-20T17:28:00.443Z,4.67
2019-06-20T17:29:00.102Z,1.33
2019-06-20T17:30:00.177Z,1.33
2019-06-20T17:31:00.126Z,0.67
2019-06-20T17:32:00.121Z,5.34
2019-06-20T17:33:00.104Z,6
2019-06-20T17:34:00.111Z,6
2019-06-20T17:35:00.161Z,4
2019-06-20T17:36:00.159Z,3.33
2019-06-20T17:37:00.126Z,1.33
2019-06-20T17:38:00.133Z,5.34
2019-06-20T17:39:00.121Z,4
2019-06-20T17:40:00.154Z,2
2019-06-20T17:41:00.153Z,5.34
2019-06-20T17:42:00.125Z,4.67
2019-06-20T17:43:00.109Z,4.67
2019-06-20T17:44:00.197Z,2
2019-06-20T17:45:00.143Z,4
2019-06-20T17:46:00.258Z,4.67
2019-06-20T17:47:05.133Z,4
2019-06-20T17:48:00.117Z,2.67
2019-06-20T17:49:00.111Z,2
2019-06-20T17:50:00.164Z,0.67
2019-06-20T17:51:00.124Z,2.67
2019-06-20T17:52:00.141Z,5.34
2019-06-20T17:53:00.162Z,4
2019-06-20T17:54:00.314Z,4
2019-06-20T17:55:00.149Z,5.34
2019-06-20T17:56:00.128Z,2.67
2019-06-20T17:57:00.135Z,5.34
2019-06-20T17:58:00.100Z,6
2019-06-20T17:59:00.122Z,4.67
2019-06-20T18:00:00.243Z,6
2019-06-20T18:01:00.099Z,2.67
2019-06-20T18:02:00.119Z,1.33
2019-06-20T18:03:00.108Z,1.33
2019-06-20T18:04:12.749Z,2
2019-06-20T18:05:00.182Z,2.67
2019-06-20T18:06:00.128Z,2.67
2019-06-20T18:07:00.166Z,3.33
2019-06-20T18:08:14.063Z,3.33
2019-06-20T18:09:00.104Z,4.67
2019-06-20T18:10:00.155Z,4
2019-06-20T18:11:00.140Z,4
2019-06-20T18:12:00.116Z,4.67
2019-06-20T18:13:00.103Z,4
2019-06-20T18:14:00.142Z,4
2019-06-20T18:15:00.180Z,4.67
2019-06-20T18:16:00.175Z,3.33
2019-06-20T18:17:00.136Z,5.34
2019-06-20T18:18:00.264Z,4.67
2019-06-20T18:19:00.235Z,4.67
2019-06-20T18:20:00.206Z,4
2019-06-20T18:21:00.220Z,5.34
2019-06-20T18:22:00.224Z,6
2019-06-20T18:23:00.556Z,4.67
2019-06-20T18:24:00.140Z,2
2019-06-20T18:25:00.569Z,4.67
2019-06-20T18:26:00.355Z,4
2019-06-20T18:27:00.285Z,3.33
2019-06-20T18:28:00.216Z,4
2019-06-20T18:29:00.243Z,5.34
2019-06-20T18:30:00.278Z,4.67
2019-06-20T18:31:00.258Z,5.34
2019-06-20T18:32:00.160Z,5.34
2019-06-20T18:33:00.108Z,1.33
2019-06-20T18:34:00.148Z,0
2019-06-20T18:35:02.096Z,0.67
2019-06-20T18:36:00.238Z,1.33
2019-06-20T18:37:00.225Z,5.34
2019-06-20T18:38:00.401Z,0
2019-06-20T18:39:00.108Z,0
2019-06-20T18:40:00.193Z,1.33
2019-06-20T18:41:00.267Z,2
2019-06-20T18:42:00.166Z,1.33
2019-06-20T18:43:00.115Z,0
2019-06-20T18:44:00.129Z,0
2019-06-20T18:45:00.350Z,3.33
2019-06-20T18:46:00.231Z,0.67
2019-06-20T18:47:00.234Z,1.33
2019-06-20T18:48:00.113Z,2.67
2019-06-20T18:49:00.295Z,0.67
2019-06-20T18:50:00.280Z,1.33
2019-06-20T18:51:00.159Z,0
2019-06-20T18:52:00.134Z,4
2019-06-20T18:53:00.143Z,3.33
2019-06-20T18:54:00.332Z,0
2019-06-20T18:55:00.168Z,2.67
2019-06-20T18:56:00.171Z,1.33
2019-06-20T18:57:00.134Z,3.33
2019-06-20T18:58:00.132Z,4.67
2019-06-20T18:59:00.193Z,2
2019-06-20T19:00:00.181Z,0
2019-06-20T19:01:00.138Z,0
2019-06-20T19:02:00.111Z,2
2019-06-20T19:03:00.139Z,0.67
2019-06-20T19:04:00.234Z,1.33
2019-06-20T19:05:00.155Z,3.33
2019-06-20T19:06:01.128Z,5.34
2019-06-20T19:07:00.194Z,0.67
2019-06-20T19:08:00.178Z,0
2019-06-20T19:09:00.144Z,1.33
2019-06-20T19:10:00.147Z,4.67
2019-06-20T19:11:00.166Z,2
2019-06-20T19:12:00.137Z,0
2019-06-20T19:13:00.488Z,2.67
2019-06-20T19:14:00.209Z,0
2019-06-20T19:15:00.208Z,4
2019-06-20T19:16:00.178Z,0.67
2019-06-20T19:17:00.304Z,4
2019-06-20T19:18:00.223Z,2.67
2019-06-20T19:19:00.159Z,5.34
2019-06-20T19:20:00.234Z,2.67
2019-06-20T19:21:00.205Z,0.67
2019-06-20T19:22:00.212Z,0
2019-06-20T19:23:00.228Z,0
2019-06-20T19:24:00.163Z,3.33
2019-06-20T19:25:03.747Z,0
2019-06-20T19:26:00.279Z,5.34
2019-06-20T19:27:00.156Z,0
2019-06-20T19:28:00.190Z,4
2019-06-20T19:29:00.158Z,2
2019-06-20T19:30:00.216Z,0.67
2019-06-20T19:31:00.162Z,0.67
2019-06-20T19:32:00.127Z,0
2019-06-20T19:33:00.387Z,0
2019-06-20T19:34:00.133Z,0
2019-06-20T19:35:02.357Z,0
2019-06-20T19:36:00.163Z,0
2019-06-20T19:37:00.157Z,0.67
2019-06-20T19:38:00.158Z,0
2019-06-20T19:39:00.202Z,0
2019-06-20T19:40:00.166Z,0
2019-06-20T19:41:00.141Z,6
2019-06-20T19:42:00.131Z,0
2019-06-20T19:43:00.189Z,0
2019-06-20T19:44:00.109Z,0.67
2019-06-20T19:45:00.214Z,2
2019-06-20T19:46:00.111Z,2.67
2019-06-20T19:47:00.106Z,0.67
2019-06-20T19:48:00.105Z,2.67
2019-06-20T19:49:00.094Z,0
2019-06-20T19:50:00.188Z,0
2019-06-20T19:51:00.161Z,0.67
2019-06-20T19:52:00.104Z,1.33
2019-06-20T19:53:00.107Z,0.67
2019-06-20T19:54:00.094Z,2
2019-06-20T19:55:00.200Z,0
2019-06-20T19:56:00.176Z,3.33
2019-06-20T19:57:00.153Z,0
2019-06-20T19:58:00.089Z,0
2019-06-20T19:59:00.104Z,0
2019-06-20T20:00:00.156Z,0
2019-06-20T20:01:00.111Z,0
2019-06-20T20:02:00.139Z,0
2019-06-20T20:03:00.169Z,0
2019-06-20T20:04:00.093Z,0
2019-06-20T20:05:00.146Z,0
2019-06-20T20:06:00.098Z,0
2019-06-20T20:07:00.148Z,0
2019-06-20T20:08:00.100Z,0
2019-06-20T20:09:00.156Z,0
2019-06-20T20:10:00.150Z,0
2019-06-20T20:11:00.134Z,0
2019-06-20T20:12:00.195Z,0
2019-06-20T20:13:00.083Z,0
2019-06-20T20:14:00.189Z,0
2019-06-20T20:15:00.132Z,0
2019-06-20T20:16:00.107Z,0
2019-06-20T20:17:00.088Z,0
2019-06-20T20:18:00.120Z,0
2019-06-20T20:19:00.227Z,0
2019-06-20T20:20:00.132Z,0
2019-06-20T20:21:00.095Z,0
2019-06-20T20:22:00.091Z,0
2019-06-20T20:23:00.081Z,0
2019-06-20T20:24:00.114Z,0
2019-06-20T20:25:00.176Z,0
2019-06-20T20:26:00.117Z,0
2019-06-20T20:27:00.156Z,0
2019-06-20T20:28:00.094Z,0
2019-06-20T20:29:00.194Z,0
2019-06-20T20:30:00.145Z,1.33
2019-06-20T20:31:00.081Z,0
2019-06-20T20:32:00.139Z,0
2019-06-20T20:33:02.035Z,0
2019-06-20T20:34:00.163Z,0
2019-06-20T20:35:00.123Z,0
2019-06-20T20:36:01.978Z,0
2019-06-20T20:37:00.093Z,0
2019-06-20T20:38:00.083Z,0
2019-06-20T20:39:00.114Z,1.33
2019-06-20T20:40:00.130Z,0
2019-06-20T20:41:00.186Z,2
2019-06-20T20:42:00.143Z,0.67
2019-06-20T20:43:00.127Z,1.33
2019-06-20T20:44:00.077Z,0.67
2019-06-20T20:45:00.111Z,0
2019-06-20T20:46:00.092Z,0
2019-06-20T20:47:00.111Z,0
2019-06-20T20:48:00.217Z,0
2019-06-20T20:49:00.115Z,0
2019-06-20T20:50:00.100Z,0
2019-06-20T20:51:00.097Z,0
2019-06-20T20:52:00.092Z,0
2019-06-20T20:53:00.103Z,0
2019-06-20T20:54:00.088Z,0
2019-06-20T20:55:00.136Z,0
2019-06-20T20:56:02.346Z,0
2019-06-20T20:57:00.108Z,0
2019-06-20T20:58:00.080Z,0
2019-06-20T20:59:00.087Z,0
2019-06-20T21:00:05.133Z,0
2019-06-20T21:01:00.085Z,0
2019-06-20T21:02:00.187Z,0
2019-06-20T21:03:00.117Z,0
2019-06-20T21:04:00.145Z,0
2019-06-20T21:05:00.083Z,0
2019-06-20T21:06:00.119Z,0
2019-06-20T21:07:00.084Z,0
2019-06-20T21:08:05.099Z,0
2019-06-20T21:09:05.114Z,0
2019-06-20T21:10:00.092Z,0
2019-06-20T21:11:00.122Z,0
2019-06-20T21:12:00.086Z,0
2019-06-20T21:13:00.079Z,0
2019-06-20T21:14:00.178Z,0
2019-06-20T21:15:00.075Z,0
2019-06-20T21:16:00.114Z,0
2019-06-20T21:17:00.080Z,0
2019-06-20T21:18:00.079Z,0
2019-06-20T21:19:00.137Z,0
2019-06-20T21:20:00.112Z,0
2019-06-20T21:21:00.122Z,0
2019-06-20T21:22:00.106Z,0
2019-06-20T21:23:00.082Z,0
2019-06-20T21:24:00.095Z,0
2019-06-20T21:25:00.088Z,0
2019-06-20T21:26:00.126Z,0
2019-06-20T21:27:00.106Z,0
2019-06-20T21:28:00.097Z,0
2019-06-20T21:29:00.090Z,0
2019-06-20T21:30:00.109Z,0
2019-06-20T21:31:00.155Z,0
2019-06-20T21:32:00.089Z,0
2019-06-20T21:33:00.086Z,0
2019-06-20T21:34:00.095Z,0
2019-06-20T21:35:00.107Z,0
2019-06-20T21:36:08.230Z,0
2019-06-20T21:37:00.086Z,0
2019-06-20T21:38:00.094Z,0
2019-06-20T21:39:00.075Z,0
2019-06-20T21:40:00.087Z,0
2019-06-20T21:41:00.129Z,0
2019-06-20T21:42:00.084Z,0
2019-06-20T21:43:00.079Z,0
2019-06-20T21:44:00.090Z,0
2019-06-20T21:45:00.091Z,0
2019-06-20T21:46:00.104Z,0
2019-06-20T21:47:00.083Z,0
2019-06-20T21:48:00.109Z,0
2019-06-20T21:49:00.099Z,0
2019-06-20T21:50:00.089Z,0
2019-06-20T21:51:00.103Z,0
2019-06-20T21:52:00.084Z,0
2019-06-20T21:53:00.080Z,0
2019-06-20T21:54:00.074Z,0
2019-06-20T21:55:00.137Z,0
2019-06-20T21:56:00.115Z,0
2019-06-20T21:57:00.081Z,0
2019-06-20T21:58:00.086Z,0
2019-06-20T21:59:00.116Z,0
2019-06-20T22:00:00.299Z,0
2019-06-20T22:01:00.108Z,0
2019-06-20T22:02:00.090Z,0
2019-06-20T22:03:00.089Z,0
2019-06-20T22:07:00.117Z,0
2019-06-20T22:08:00.096Z,0
2019-06-20T22:09:00.110Z,0
2019-06-20T22:10:05.093Z,0
2019-06-20T22:11:00.119Z,0
2019-06-20T22:12:00.158Z,0
2019-06-20T22:13:00.133Z,0
2019-06-20T22:14:00.170Z,0
2019-06-20T22:15:00.159Z,0
2019-06-20T22:16:00.532Z,0
2019-06-20T22:17:00.127Z,0
2019-06-20T22:18:00.080Z,0
2019-06-20T22:19:00.165Z,0
2019-06-20T22:20:00.090Z,0
2019-06-20T22:21:00.097Z,0
2019-06-20T22:22:00.139Z,0
2019-06-20T22:23:00.099Z,0
2019-06-20T22:24:00.106Z,0
2019-06-20T22:25:00.125Z,0
2019-06-20T22:26:00.137Z,0
2019-06-20T22:27:00.123Z,0
2019-06-20T22:28:32.077Z,0
2019-06-20T22:29:00.131Z,0
2019-06-20T22:30:03.604Z,0
2019-06-20T22:31:00.114Z,0
2019-06-20T22:32:00.159Z,0
2019-06-20T22:33:00.276Z,0
2019-06-20T22:34:00.112Z,0
2019-06-20T22:35:00.103Z,0
2019-06-20T22:36:00.083Z,0
2019-06-20T22:37:00.125Z,0
2019-06-20T22:38:00.100Z,0
2019-06-20T22:39:00.096Z,0
2019-06-20T22:40:00.110Z,0
2019-06-20T22:41:00.110Z,0
2019-06-20T22:42:00.141Z,0
2019-06-20T22:43:00.095Z,0
2019-06-20T22:44:00.114Z,0
2019-06-20T22:45:00.136Z,0
2019-06-20T22:46:00.100Z,0
2019-06-20T22:47:00.136Z,0
2019-06-20T22:48:00.094Z,0
2019-06-20T22:49:00.099Z,0
2019-06-20T22:50:00.125Z,0
2019-06-20T22:51:00.106Z,0
2019-06-20T22:52:00.114Z,0
2019-06-20T22:53:00.093Z,0
2019-06-20T22:54:00.345Z,0
2019-06-20T22:55:00.154Z,0
2019-06-20T22:56:00.120Z,0
2019-06-20T22:57:00.246Z,0
2019-06-20T22:58:00.091Z,0
2019-06-20T22:59:00.153Z,0
2019-06-20T23:00:00.166Z,0
2019-06-20T23:01:00.102Z,0